Main page
METAR-TAF:

METAR-TAF

Airports :

Le Touquet – Côte d'Opale Airport

Le Touquet, France

latitude: 50-30-53N, longitude: 001-37-39E, elevation: 6 m

Current weather observation

The report was made 34 minutes ago, at 13:00 UTC
Wind 13 kt from the East
Temperature 22°C
Humidity 31%
Pressure 1031 hPa
Visibility: 9000 m

METAR: LFAT 281300Z AUTO 10013KT 9000 NSC 22/04 Q1031

Time: 15:34 (13:34 UTC)


TAF: missing

Weather observations and forecasts of more than 4000 airports (METAR and TAF reports).

The available stations are represented by yellow and red dots on the map.

Hover mouse over dot to see the name of the station.

Then click to see weather observations and forecasts.

To change the map : click on the green buttons with a black cross to zoom in, on the green button with a dash to zoom out, or on the green arrows for adjacent maps.


METAR-TAF: